createdAt,value
2024-03-12T00:01:36.971Z,1.03
2024-03-12T00:04:05.352Z,1.10
2024-03-12T00:06:33.552Z,1.60
2024-03-12T00:09:03.691Z,1.00
2024-03-12T00:11:32.848Z,1.00
2024-03-12T00:14:00.982Z,1.53
2024-03-12T00:16:31.734Z,1.10
2024-03-12T00:19:01.827Z,1.30
2024-03-12T00:21:30.477Z,1.33
2024-03-12T00:24:00.029Z,1.70
2024-03-12T00:26:30.269Z,1.40
2024-03-12T00:28:58.263Z,1.40
2024-03-12T00:31:26.892Z,1.33
2024-03-12T00:33:56.674Z,1.50
2024-03-12T00:36:24.841Z,1.60
2024-03-12T00:38:53.814Z,1.43
2024-03-12T00:41:22.812Z,1.60
2024-03-12T00:43:53.353Z,1.67
2024-03-12T00:46:22.307Z,1.60
2024-03-12T00:48:50.351Z,1.93
2024-03-12T00:51:19.547Z,1.60
2024-03-12T00:53:47.566Z,1.40
2024-03-12T00:56:16.604Z,1.87
2024-03-12T00:58:44.677Z,1.00
2024-03-12T01:01:16.548Z,1.17
2024-03-12T01:03:47.999Z,1.20
2024-03-12T01:06:16.368Z,1.57
2024-03-12T01:08:44.366Z,1.30
2024-03-12T01:11:14.324Z,2.10
2024-03-12T01:13:42.473Z,1.57
2024-03-12T01:16:10.744Z,1.00
2024-03-12T01:18:40.357Z,2.17
2024-03-12T01:21:09.504Z,2.40
2024-03-12T01:23:37.642Z,1.20
2024-03-12T01:26:07.946Z,2.00
2024-03-12T01:28:36.447Z,1.40
2024-03-12T01:31:05.035Z,1.87
2024-03-12T01:33:33.354Z,1.40
2024-03-12T01:36:19.929Z,3.20
2024-03-12T01:38:49.860Z,1.20
2024-03-12T01:41:18.199Z,1.23
2024-03-12T01:43:56.275Z,1.10
2024-03-12T01:46:24.399Z,1.00
2024-03-12T01:48:52.480Z,0.90
2024-03-12T01:51:22.074Z,0.90
2024-03-12T01:53:50.198Z,0.70
2024-03-12T01:56:18.397Z,0.90
2024-03-12T01:58:46.928Z,0.80
2024-03-12T02:01:15.194Z,0.70
2024-03-12T02:03:44.467Z,0.77
2024-03-12T02:06:12.523Z,0.80
2024-03-12T02:08:42.455Z,0.70
2024-03-12T02:11:11.348Z,0.80
2024-03-12T02:13:39.477Z,0.90
2024-03-12T02:16:08.428Z,0.67
2024-03-12T02:18:36.703Z,0.80
2024-03-12T02:21:05.920Z,0.70
2024-03-12T02:23:39.410Z,0.73
2024-03-12T02:26:07.758Z,0.77
2024-03-12T02:28:35.870Z,0.67
2024-03-12T02:31:04.072Z,0.63
2024-03-12T02:33:32.264Z,0.70
2024-03-12T02:36:00.608Z,0.50
2024-03-12T02:38:29.934Z,0.70
2024-03-12T02:40:59.386Z,0.67
2024-03-12T02:43:29.069Z,0.80
2024-03-12T02:45:57.131Z,0.63
2024-03-12T02:48:26.685Z,0.70
2024-03-12T02:50:54.727Z,0.80
2024-03-12T02:53:22.774Z,0.80
2024-03-12T02:55:50.769Z,0.60
2024-03-12T02:58:26.384Z,0.77
2024-03-12T03:00:55.291Z,0.70
2024-03-12T03:03:24.204Z,0.70
2024-03-12T03:05:52.374Z,1.63
2024-03-12T03:08:20.548Z,0.73
2024-03-12T03:10:48.596Z,0.70
2024-03-12T03:13:16.802Z,0.60
2024-03-12T03:15:47.228Z,0.70
2024-03-12T03:18:14.627Z,0.83
2024-03-12T03:20:42.682Z,0.73
2024-03-12T03:23:10.703Z,0.60
2024-03-12T03:25:38.773Z,0.80
2024-03-12T03:28:07.296Z,0.70
2024-03-12T03:30:35.491Z,0.60
2024-03-12T03:33:08.664Z,0.87
2024-03-12T03:35:37.112Z,1.13
2024-03-12T03:38:07.347Z,0.93
2024-03-12T03:40:35.457Z,1.87
2024-03-12T03:43:03.585Z,0.80
2024-03-12T03:45:31.729Z,0.70
2024-03-12T03:47:59.916Z,0.90
2024-03-12T03:50:29.435Z,0.70
2024-03-12T03:52:57.566Z,0.77
2024-03-12T03:55:25.583Z,0.60
2024-03-12T03:57:54.196Z,0.67
2024-03-12T04:00:29.764Z,1.23
2024-03-12T04:02:58.106Z,0.70
2024-03-12T04:05:26.407Z,0.80
2024-03-12T04:07:55.823Z,0.60
2024-03-12T04:10:24.453Z,0.83
2024-03-12T04:12:57.064Z,0.67
2024-03-12T04:15:29.878Z,0.63
2024-03-12T04:17:59.221Z,1.20
2024-03-12T04:20:27.301Z,7.73
2024-03-12T04:22:57.271Z,1.83
2024-03-12T04:25:25.377Z,4.60
2024-03-12T04:27:54.734Z,2.50
2024-03-12T04:30:23.164Z,1.73
2024-03-12T04:36:30.924Z,0.60
2024-03-12T04:39:00.387Z,0.70
2024-03-12T04:41:28.419Z,0.70
2024-03-12T04:43:56.456Z,0.73
2024-03-12T04:46:24.489Z,1.00
2024-03-12T04:48:53.035Z,0.80
2024-03-12T04:51:21.095Z,0.70
2024-03-12T04:53:49.185Z,0.80
2024-03-12T04:56:18.776Z,1.13
2024-03-12T04:58:46.838Z,1.00
2024-03-12T05:01:15.069Z,0.80
2024-03-12T05:03:43.187Z,0.77
2024-03-12T05:06:11.224Z,0.73
2024-03-12T05:08:39.500Z,0.70
2024-03-12T05:11:07.604Z,0.67
2024-03-12T05:13:37.158Z,0.77
2024-03-12T05:16:06.130Z,0.60
2024-03-12T05:18:34.309Z,0.70
2024-03-12T05:21:02.978Z,0.80
2024-03-12T05:23:31.060Z,0.87
2024-03-12T05:26:00.239Z,0.70
2024-03-12T05:28:28.431Z,1.00
2024-03-12T05:30:58.574Z,0.80
2024-03-12T05:33:31.350Z,1.07
2024-03-12T05:36:10.434Z,0.90
2024-03-12T05:38:46.046Z,6.40
2024-03-12T05:41:27.180Z,14.90
2024-03-12T05:44:12.754Z,23.00
2024-03-12T05:46:59.860Z,22.53
2024-03-12T05:49:28.033Z,16.13
2024-03-12T05:51:56.887Z,13.53
2024-03-12T05:54:25.127Z,14.10
2024-03-12T05:56:53.892Z,8.43
2024-03-12T05:59:22.665Z,7.40
2024-03-12T06:01:52.629Z,6.33
2024-03-12T06:04:21.188Z,4.80
2024-03-12T06:06:49.321Z,4.77
2024-03-12T06:09:23.672Z,6.77
2024-03-12T06:11:51.833Z,3.00
2024-03-12T06:14:20.188Z,3.57
2024-03-12T06:16:48.279Z,2.20
2024-03-12T06:19:17.885Z,2.13
2024-03-12T06:21:45.987Z,1.00
2024-03-12T06:24:14.153Z,1.00
2024-03-12T06:26:43.548Z,1.37
2024-03-12T06:29:12.092Z,1.07
2024-03-12T06:31:41.103Z,0.70
2024-03-12T06:34:09.279Z,0.90
2024-03-12T06:36:39.266Z,1.20
2024-03-12T06:39:07.336Z,1.50
2024-03-12T06:41:35.410Z,2.70
2024-03-12T06:44:09.004Z,1.53
2024-03-12T06:46:37.059Z,2.63
2024-03-12T06:49:08.534Z,1.37
2024-03-12T06:51:38.172Z,1.00
2024-03-12T06:54:06.492Z,1.10
2024-03-12T06:56:42.744Z,1.10
2024-03-12T06:59:11.906Z,0.70
2024-03-12T07:01:42.388Z,0.80
2024-03-12T07:04:11.207Z,2.03
2024-03-12T07:06:44.319Z,1.50
2024-03-12T07:09:23.693Z,1.60
2024-03-12T07:11:51.806Z,6.20
2024-03-12T07:14:28.663Z,6.17
2024-03-12T07:16:57.444Z,3.10
2024-03-12T07:19:25.526Z,1.20
2024-03-12T07:21:56.157Z,1.00
2024-03-12T07:24:24.365Z,0.90
2024-03-12T07:26:52.500Z,0.80
2024-03-12T07:29:20.531Z,1.23
2024-03-12T07:31:48.621Z,0.93
2024-03-12T07:34:18.659Z,0.87
2024-03-12T07:36:47.182Z,0.90
2024-03-12T07:39:26.071Z,0.90
2024-03-12T07:41:55.359Z,3.03
2024-03-12T07:44:23.618Z,1.37
2024-03-12T07:46:51.803Z,0.80
2024-03-12T07:49:22.525Z,1.47
2024-03-12T07:51:51.599Z,1.57
2024-03-12T07:54:21.705Z,1.53
2024-03-12T07:56:50.926Z,1.30
2024-03-12T07:59:22.538Z,0.60
2024-03-12T08:01:51.122Z,1.10
2024-03-12T08:04:20.574Z,1.17
2024-03-12T08:06:49.833Z,1.10
2024-03-12T08:09:19.674Z,0.90
2024-03-12T08:11:49.720Z,0.70
2024-03-12T08:14:18.894Z,1.03
2024-03-12T08:16:47.971Z,1.00
2024-03-12T08:19:16.482Z,1.83
2024-03-12T08:21:44.605Z,0.90
2024-03-12T08:24:12.632Z,0.80
2024-03-12T08:26:40.729Z,1.00
2024-03-12T08:29:10.306Z,1.33
2024-03-12T08:31:44.994Z,0.70
2024-03-12T08:34:19.746Z,1.00
2024-03-12T08:36:48.404Z,0.73
2024-03-12T08:39:16.840Z,1.17
2024-03-12T08:41:45.395Z,0.97
2024-03-12T08:44:15.547Z,0.90
2024-03-12T08:46:43.656Z,0.90
2024-03-12T08:49:13.036Z,1.73
2024-03-12T08:51:41.775Z,1.77
2024-03-12T08:54:10.507Z,1.20
2024-03-12T08:56:38.708Z,0.97
2024-03-12T08:59:07.957Z,0.83
2024-03-12T09:01:37.508Z,2.30
2024-03-12T09:06:37.004Z,1.70
2024-03-12T09:09:06.120Z,1.33
2024-03-12T09:11:34.837Z,0.93
2024-03-12T09:14:03.061Z,0.73
2024-03-12T09:16:31.333Z,6.73
2024-03-12T09:19:01.619Z,1.03
2024-03-12T09:21:30.152Z,1.87
2024-03-12T09:24:02.197Z,1.20
2024-03-12T09:26:31.170Z,3.20
2024-03-12T09:29:01.123Z,0.77
2024-03-12T09:31:29.778Z,0.80
2024-03-12T09:33:58.152Z,0.80
2024-03-12T09:36:27.845Z,0.80
2024-03-12T09:38:56.077Z,1.40
2024-03-12T09:41:27.047Z,0.77
2024-03-12T09:43:56.031Z,0.80
2024-03-12T09:46:25.095Z,0.77
2024-03-12T09:48:53.988Z,2.47
2024-03-12T09:51:22.994Z,3.67
2024-03-12T09:53:52.607Z,1.17
2024-03-12T09:56:21.900Z,1.00
2024-03-12T09:58:50.030Z,0.90
2024-03-12T10:01:18.297Z,1.93
2024-03-12T10:03:47.661Z,1.77
2024-03-12T10:06:17.870Z,1.10
2024-03-12T10:08:46.600Z,0.87
2024-03-12T10:11:22.286Z,0.80
2024-03-12T10:13:58.181Z,0.73
2024-03-12T10:16:27.029Z,0.80
2024-03-12T10:19:16.331Z,2.90
2024-03-12T10:21:46.401Z,0.80
2024-03-12T10:24:18.426Z,0.83
2024-03-12T10:26:49.208Z,0.80
2024-03-12T10:29:19.584Z,0.83
2024-03-12T10:31:48.778Z,1.00
2024-03-12T10:34:21.287Z,1.77
2024-03-12T10:36:51.340Z,1.20
2024-03-12T10:39:27.484Z,1.20
2024-03-12T10:42:00.497Z,1.20
2024-03-12T10:44:30.441Z,1.30
2024-03-12T10:47:02.085Z,1.73
2024-03-12T10:49:30.648Z,0.70
2024-03-12T10:52:00.185Z,0.73
2024-03-12T10:54:32.128Z,1.30
2024-03-12T10:57:05.116Z,0.90
2024-03-12T10:59:37.951Z,0.70
2024-03-12T11:02:08.577Z,0.60
2024-03-12T11:04:37.667Z,0.90
2024-03-12T11:07:06.865Z,0.73
2024-03-12T11:09:37.199Z,1.00
2024-03-12T11:12:07.161Z,0.70
2024-03-12T11:14:35.295Z,0.70
2024-03-12T11:17:03.506Z,0.93
2024-03-12T11:19:35.219Z,0.70
2024-03-12T11:22:12.659Z,0.70
2024-03-12T11:24:46.560Z,0.90
2024-03-12T11:27:21.670Z,2.43
2024-03-12T11:30:09.884Z,0.70
2024-03-12T11:32:41.988Z,1.00
2024-03-12T11:35:29.427Z,0.80
2024-03-12T11:38:10.330Z,0.80
2024-03-12T11:40:50.490Z,0.80
2024-03-12T11:43:40.674Z,0.90
2024-03-12T11:46:10.837Z,1.23
2024-03-12T11:48:40.283Z,1.00
2024-03-12T11:51:13.402Z,0.77
2024-03-12T11:53:43.796Z,0.90
2024-03-12T11:56:16.985Z,1.00
2024-03-12T11:58:57.032Z,0.70
2024-03-12T12:01:33.580Z,0.70
2024-03-12T12:04:05.365Z,0.70
2024-03-12T12:06:34.530Z,2.43
2024-03-12T12:09:06.597Z,0.70
2024-03-12T12:11:36.777Z,1.20
2024-03-12T12:14:09.981Z,1.67
2024-03-12T12:16:39.176Z,0.70
2024-03-12T12:19:13.841Z,0.77
2024-03-12T12:21:46.873Z,0.60
2024-03-12T12:24:15.274Z,0.83
2024-03-12T12:26:46.826Z,0.70
2024-03-12T12:29:19.091Z,0.67
2024-03-12T12:31:48.110Z,1.23
2024-03-12T12:34:16.891Z,0.90
2024-03-12T12:36:47.866Z,3.33
2024-03-12T12:39:18.371Z,0.70
2024-03-12T12:41:47.783Z,0.73
2024-03-12T12:44:18.981Z,5.00
2024-03-12T12:46:49.401Z,1.83
2024-03-12T12:49:18.765Z,0.70
2024-03-12T12:51:48.281Z,1.60
2024-03-12T12:54:19.206Z,0.53
2024-03-12T12:56:50.587Z,0.90
2024-03-12T12:59:22.425Z,2.43
2024-03-12T13:01:51.210Z,0.90
2024-03-12T13:04:24.095Z,0.70
2024-03-12T13:06:55.316Z,0.90
2024-03-12T13:09:32.781Z,0.77
2024-03-12T13:12:02.552Z,0.97
2024-03-12T13:14:32.809Z,0.63
2024-03-12T13:17:01.290Z,0.60
2024-03-12T13:19:29.673Z,1.27
2024-03-12T13:21:59.326Z,0.70
2024-03-12T13:24:30.540Z,0.65
2024-03-12T13:26:59.405Z,0.73
2024-03-12T13:29:29.154Z,1.70
2024-03-12T13:31:59.738Z,1.63
2024-03-12T13:34:28.382Z,0.68
2024-03-12T13:36:56.670Z,0.63
2024-03-12T13:39:26.057Z,0.60
2024-03-12T13:41:54.291Z,0.60
2024-03-12T13:44:22.836Z,0.60
2024-03-12T13:46:51.270Z,0.53
2024-03-12T13:49:24.454Z,1.73
2024-03-12T13:51:53.782Z,0.63
2024-03-12T13:54:22.204Z,1.70
2024-03-12T13:56:50.263Z,0.60
2024-03-12T13:59:20.002Z,0.80
2024-03-12T14:01:49.246Z,0.57
2024-03-12T14:04:18.337Z,1.50
2024-03-12T14:06:48.527Z,0.90
2024-03-12T14:09:17.071Z,0.70
2024-03-12T14:11:45.285Z,0.80
2024-03-12T14:14:13.500Z,0.60
2024-03-12T14:16:42.110Z,0.70
2024-03-12T14:19:10.336Z,0.93
2024-03-12T14:21:38.571Z,0.93
2024-03-12T14:24:08.767Z,0.65
2024-03-12T14:26:36.956Z,1.05
2024-03-12T14:29:05.142Z,0.73
2024-03-12T14:31:33.478Z,0.70
2024-03-12T14:34:01.868Z,0.70
2024-03-12T14:36:30.175Z,0.88
2024-03-12T14:38:58.785Z,1.55
2024-03-12T14:41:28.642Z,1.27
2024-03-12T14:43:58.425Z,0.90
2024-03-12T14:46:26.664Z,0.85
2024-03-12T14:48:56.229Z,1.55
2024-03-12T14:51:24.953Z,0.85
2024-03-12T14:53:53.124Z,1.17
2024-03-12T14:56:21.919Z,0.80
2024-03-12T14:58:51.451Z,1.00
2024-03-12T15:01:19.842Z,0.93
2024-03-12T15:03:48.027Z,1.30
2024-03-12T15:06:16.294Z,1.50
2024-03-12T15:08:44.821Z,0.73
2024-03-12T15:11:13.433Z,2.37
2024-03-12T15:13:41.558Z,1.47
2024-03-12T15:16:12.570Z,1.07
2024-03-12T15:18:41.384Z,0.70
2024-03-12T15:21:09.485Z,3.07
2024-03-12T15:23:37.590Z,1.20
2024-03-12T15:26:06.567Z,3.87
2024-03-12T15:28:34.898Z,0.83
2024-03-12T15:31:04.944Z,0.87
2024-03-12T15:33:35.215Z,2.00
2024-03-12T15:36:03.303Z,1.07
2024-03-12T15:38:31.473Z,0.80
2024-03-12T15:40:59.897Z,1.63
2024-03-12T15:43:28.188Z,2.50
2024-03-12T15:45:57.033Z,1.10
2024-03-12T15:48:25.568Z,0.80
2024-03-12T15:50:55.795Z,0.87
2024-03-12T15:53:24.711Z,1.07
2024-03-12T15:55:52.880Z,2.20
2024-03-12T15:58:22.024Z,0.80
2024-03-12T16:00:51.883Z,0.80
2024-03-12T16:03:20.150Z,0.67
2024-03-12T16:05:48.768Z,1.63
2024-03-12T16:08:18.267Z,2.30
2024-03-12T16:10:46.600Z,1.07
2024-03-12T16:13:15.622Z,1.13
2024-03-12T16:15:44.356Z,1.20
2024-03-12T16:18:13.383Z,1.40
2024-03-12T16:20:41.452Z,1.10
2024-03-12T16:23:09.594Z,1.03
2024-03-12T16:25:39.114Z,1.20
2024-03-12T16:28:07.779Z,2.00
2024-03-12T16:30:35.903Z,1.00
2024-03-12T16:33:04.204Z,7.00
2024-03-12T16:35:32.314Z,1.40
2024-03-12T16:38:00.595Z,1.67
2024-03-12T16:40:29.040Z,1.73
2024-03-12T16:42:58.923Z,1.00
2024-03-12T16:45:27.119Z,1.17
2024-03-12T16:47:55.420Z,2.67
2024-03-12T16:50:23.879Z,1.27
2024-03-12T16:52:52.177Z,1.57
2024-03-12T16:55:21.126Z,1.20
2024-03-12T16:57:49.869Z,1.40
2024-03-12T17:00:20.305Z,1.10
2024-03-12T17:02:49.191Z,1.87
2024-03-12T17:05:23.048Z,1.40
2024-03-12T17:07:54.275Z,2.47
2024-03-12T17:10:23.921Z,0.90
2024-03-12T17:12:53.084Z,1.93
2024-03-12T17:15:24.492Z,1.07
2024-03-12T17:17:52.952Z,2.50
2024-03-12T17:20:21.118Z,1.43
2024-03-12T17:22:49.658Z,1.10
2024-03-12T17:25:20.510Z,1.10
2024-03-12T17:27:50.451Z,1.07
2024-03-12T17:30:21.270Z,1.00
2024-03-12T17:32:51.437Z,1.87
2024-03-12T17:35:20.283Z,1.10
2024-03-12T17:37:52.506Z,1.20
2024-03-12T17:40:23.753Z,1.07
2024-03-12T17:42:53.073Z,1.20
2024-03-12T17:45:22.619Z,1.20
2024-03-12T17:47:52.961Z,0.83
2024-03-12T17:50:23.165Z,2.57
2024-03-12T17:52:52.380Z,1.03
2024-03-12T17:55:22.769Z,3.07
2024-03-12T17:57:52.434Z,1.00
2024-03-12T18:00:22.419Z,1.13
2024-03-12T18:02:53.042Z,1.03
2024-03-12T18:05:21.956Z,1.30
2024-03-12T18:07:53.212Z,0.93
2024-03-12T18:10:22.864Z,1.00
2024-03-12T18:12:51.559Z,1.13
2024-03-12T18:15:21.548Z,1.10
2024-03-12T18:17:51.319Z,1.03
2024-03-12T18:20:25.161Z,6.40
2024-03-12T18:22:54.585Z,1.10
2024-03-12T18:25:23.199Z,1.30
2024-03-12T18:27:57.514Z,1.27
2024-03-12T18:30:26.239Z,0.90
2024-03-12T18:32:56.145Z,1.23
2024-03-12T18:35:25.065Z,1.43
2024-03-12T18:37:53.369Z,1.40
2024-03-12T18:40:23.619Z,1.50
2024-03-12T18:42:52.359Z,1.20
2024-03-12T18:45:23.807Z,2.43
2024-03-12T18:47:54.779Z,3.60
2024-03-12T18:50:26.167Z,2.00
2024-03-12T18:52:55.376Z,1.30
2024-03-12T18:55:24.392Z,1.53
2024-03-12T18:57:53.759Z,1.10
2024-03-12T19:00:25.132Z,2.60
2024-03-12T19:02:55.187Z,1.40
2024-03-12T19:05:26.025Z,1.80
2024-03-12T19:07:56.057Z,1.97
2024-03-12T19:10:25.349Z,2.20
2024-03-12T19:12:54.537Z,1.80
2024-03-12T19:15:24.457Z,1.23
2024-03-12T19:17:53.685Z,2.40
2024-03-12T19:20:23.688Z,2.43
2024-03-12T19:22:57.980Z,2.10
2024-03-12T19:25:27.784Z,2.23
2024-03-12T19:27:57.453Z,1.70
2024-03-12T19:30:26.569Z,3.10
2024-03-12T19:32:56.208Z,2.50
2024-03-12T19:35:25.176Z,2.47
2024-03-12T19:37:57.045Z,2.43
2024-03-12T19:40:27.394Z,3.03
2024-03-12T19:42:57.972Z,2.60
2024-03-12T19:45:29.006Z,5.10
2024-03-12T19:47:58.594Z,3.00
2024-03-12T19:50:27.988Z,2.13
2024-03-12T19:52:58.214Z,2.63
2024-03-12T19:55:31.119Z,3.40
2024-03-12T19:58:01.957Z,4.57
2024-03-12T20:00:36.648Z,4.90
2024-03-12T20:03:07.852Z,2.30
2024-03-12T20:05:37.760Z,5.63
2024-03-12T20:08:10.950Z,3.10
2024-03-12T20:10:39.321Z,2.40
2024-03-12T20:13:08.132Z,4.40
2024-03-12T20:15:38.534Z,3.07
2024-03-12T20:18:07.605Z,5.60
2024-03-12T20:20:37.244Z,5.93
2024-03-12T20:23:07.990Z,13.73
2024-03-12T20:25:36.737Z,15.90
2024-03-12T20:28:11.053Z,22.00
2024-03-12T20:30:40.991Z,13.50
2024-03-12T20:33:11.885Z,11.50
2024-03-12T20:35:41.120Z,6.57
2024-03-12T20:38:11.106Z,5.03
2024-03-12T20:40:39.319Z,3.43
2024-03-12T20:43:09.826Z,1.63
2024-03-12T20:45:39.534Z,1.60
2024-03-12T20:48:11.383Z,2.70
2024-03-12T20:50:41.486Z,1.60
2024-03-12T20:53:12.112Z,1.90
2024-03-12T20:55:41.597Z,1.40
2024-03-12T20:58:10.169Z,1.70
2024-03-12T21:00:39.390Z,1.80
2024-03-12T21:03:10.608Z,1.83
2024-03-12T21:05:40.702Z,5.07
2024-03-12T21:08:11.307Z,2.10
2024-03-12T21:10:44.691Z,2.80
2024-03-12T21:13:14.183Z,2.80
2024-03-12T21:15:43.502Z,3.00
2024-03-12T21:18:13.195Z,4.80
2024-03-12T21:20:42.259Z,2.80
2024-03-12T21:23:12.627Z,3.00
2024-03-12T21:25:41.045Z,2.53
2024-03-12T21:28:11.145Z,2.70
2024-03-12T21:30:42.249Z,3.00
2024-03-12T21:33:11.859Z,3.20
2024-03-12T21:35:42.240Z,2.33
2024-03-12T21:38:12.171Z,1.87
2024-03-12T21:40:40.317Z,3.00
2024-03-12T21:43:10.332Z,5.07
2024-03-12T21:45:38.724Z,1.90
2024-03-12T21:48:08.925Z,2.20
2024-03-12T21:50:38.126Z,2.00
2024-03-12T21:53:09.263Z,1.97
2024-03-12T21:55:40.404Z,2.83
2024-03-12T21:58:10.375Z,2.03
2024-03-12T22:00:38.627Z,2.00
2024-03-12T22:03:08.661Z,2.03
2024-03-12T22:05:36.815Z,1.70
2024-03-12T22:08:06.119Z,2.37
2024-03-12T22:10:35.629Z,1.63
2024-03-12T22:13:05.631Z,2.83
2024-03-12T22:15:33.776Z,2.47
2024-03-12T22:18:02.167Z,1.90
2024-03-12T22:20:30.341Z,2.37
2024-03-12T22:22:59.319Z,1.87
2024-03-12T22:25:28.134Z,1.70
2024-03-12T22:27:57.343Z,1.90
2024-03-12T22:30:28.707Z,3.83
2024-03-12T22:32:57.119Z,2.77
2024-03-12T22:35:25.775Z,2.20
2024-03-12T22:37:54.513Z,1.80
2024-03-12T22:40:23.081Z,1.80
2024-03-12T22:42:52.588Z,2.50
2024-03-12T22:45:21.033Z,2.60
2024-03-12T22:47:51.050Z,1.67
2024-03-12T22:50:19.668Z,1.63
2024-03-12T22:52:49.129Z,1.80
2024-03-12T22:55:18.032Z,1.43
2024-03-12T22:57:47.728Z,2.07
2024-03-12T23:00:33.946Z,3.47
2024-03-12T23:03:04.597Z,1.50
2024-03-12T23:05:35.055Z,1.90
2024-03-12T23:08:06.565Z,1.97
2024-03-12T23:10:36.354Z,2.53
2024-03-12T23:13:05.365Z,2.97
2024-03-12T23:15:36.260Z,3.30
2024-03-12T23:18:06.905Z,2.30
2024-03-12T23:20:35.600Z,4.27
2024-03-12T23:23:03.773Z,3.93
2024-03-12T23:25:31.881Z,3.30
2024-03-12T23:28:00.681Z,3.43
2024-03-12T23:30:29.225Z,3.43
2024-03-12T23:32:59.243Z,5.43
2024-03-12T23:35:29.335Z,8.17
2024-03-12T23:38:02.597Z,6.47
2024-03-12T23:40:31.207Z,9.13
2024-03-12T23:42:59.483Z,5.80
2024-03-12T23:45:27.720Z,5.57
2024-03-12T23:47:55.989Z,5.43
2024-03-12T23:50:24.932Z,6.73
2024-03-12T23:52:54.612Z,6.33
2024-03-12T23:55:22.783Z,6.07
2024-03-12T23:57:54.306Z,5.07
